createdAt,value
2017-07-06T20:55:27.130Z,19.40
2017-07-06T20:57:54.740Z,19.40
2017-07-06T21:00:23.098Z,19.40
2017-07-06T21:02:50.788Z,19.40
2017-07-06T21:05:19.135Z,19.50
2017-07-06T21:07:46.767Z,19.50
2017-07-06T21:10:14.494Z,19.50
2017-07-06T21:12:42.834Z,19.40
2017-07-06T21:15:10.460Z,19.40
2017-07-06T21:17:38.066Z,19.30
2017-07-06T21:20:05.721Z,19.30
2017-07-06T21:22:33.320Z,19.20
2017-07-06T21:25:01.800Z,19.10
2017-07-06T21:27:29.363Z,19.10
2017-07-06T21:29:57.003Z,19.10
2017-07-06T21:32:24.825Z,19.00
2017-07-06T21:34:52.433Z,19.00
2017-07-06T21:37:20.023Z,18.90
2017-07-06T21:39:47.669Z,18.90
2017-07-06T21:42:16.124Z,18.90
2017-07-06T21:44:43.703Z,18.80
2017-07-06T21:47:11.667Z,18.90
2017-07-06T21:49:39.366Z,18.90
2017-07-06T21:52:06.947Z,18.80
2017-07-06T21:54:34.989Z,18.90
2017-07-06T21:57:02.597Z,18.90
2017-07-06T21:59:30.237Z,18.80
2017-07-06T22:01:58.811Z,18.80
2017-07-06T22:04:26.413Z,18.80
2017-07-06T22:06:53.980Z,18.80
2017-07-06T22:09:21.776Z,18.90
2017-07-06T22:11:49.340Z,18.90
2017-07-06T22:14:16.964Z,18.80
2017-07-06T22:16:44.960Z,18.80
2017-07-06T22:19:12.565Z,18.80
2017-07-06T22:21:40.141Z,18.90
2017-07-06T22:24:07.919Z,18.90
2017-07-06T22:26:35.574Z,18.90
2017-07-06T22:29:04.132Z,18.90
2017-07-06T22:31:32.131Z,18.90
2017-07-06T22:33:59.709Z,18.90
2017-07-06T22:36:27.290Z,19.00
2017-07-06T22:38:55.065Z,19.00
2017-07-06T22:41:24.387Z,19.10
2017-07-06T22:43:51.940Z,19.10
2017-07-06T22:46:19.590Z,19.10
2017-07-06T22:48:47.169Z,19.00
2017-07-06T22:51:14.736Z,19.10
2017-07-06T22:53:42.491Z,19.00
2017-07-06T22:56:10.186Z,19.00
2017-07-06T22:58:37.968Z,19.00
2017-07-06T23:01:05.589Z,19.00
2017-07-06T23:03:33.147Z,19.00
2017-07-06T23:06:00.709Z,18.90
2017-07-06T23:08:28.412Z,18.90
2017-07-06T23:10:55.997Z,18.70
2017-07-06T23:13:23.565Z,18.90
2017-07-06T23:15:51.155Z,18.90
2017-07-06T23:18:18.737Z,18.90
2017-07-06T23:20:46.300Z,18.90
2017-07-06T23:23:14.958Z,18.90
2017-07-06T23:25:42.550Z,18.90
2017-07-06T23:28:10.888Z,18.80
2017-07-06T23:30:38.506Z,18.80
2017-07-06T23:33:06.102Z,18.80
2017-07-06T23:35:33.674Z,18.80
2017-07-06T23:38:01.571Z,18.90
2017-07-06T23:40:29.924Z,18.80
2017-07-06T23:42:57.496Z,18.70
2017-07-06T23:45:25.240Z,18.80
2017-07-06T23:47:52.842Z,18.80
2017-07-06T23:50:20.421Z,18.80
2017-07-06T23:52:48.155Z,18.80
2017-07-06T23:55:16.479Z,18.80
2017-07-06T23:57:44.043Z,18.80
